Time;durP1;ratioP1;P1;durP2;ratioP2;P2;SDS_P1;SDS_P2;PMS_P1;PMS_P2;Temp;Humidity;BMP_temperature;BMP_pressure;BME280_temperature;BME280_humidity;BME280_pressure;Samples;Min_cycle;Max_cycle;Signal;HPM_P1;HPM_P2
2022/07/06 00:00:50;;;;;;;1.88;1.60;;;;;;;17.24;50.17;96258.03;5016405;28;20621;-78
2022/07/06 00:03:15;;;;;;;2.38;1.90;;;;;;;17.17;49.98;96263.13;5015063;28;20179;-78
2022/07/06 00:05:40;;;;;;;2.33;1.80;;;;;;;17.18;50.16;96256.06;4989832;28;20275;-78
2022/07/06 00:08:05;;;;;;;5.38;1.80;;;;;;;17.12;50.13;96254.94;4997459;28;20180;-78
2022/07/06 00:10:31;;;;;;;2.92;1.70;;;;;;;17.14;49.98;96245.13;5014864;28;20694;-78
2022/07/06 00:12:56;;;;;;;4.82;2.20;;;;;;;17.13;50.03;96251.31;4995892;28;20179;-78
2022/07/06 00:15:21;;;;;;;2.60;2.05;;;;;;;17.07;50.44;96252.03;5012975;28;20546;-78
2022/07/06 00:17:47;;;;;;;3.00;1.80;;;;;;;17.06;49.92;96254.84;5014290;28;20241;-78
2022/07/06 00:20:12;;;;;;;2.08;1.65;;;;;;;17.02;49.99;96254.34;5014498;28;20203;-78
2022/07/06 00:22:37;;;;;;;2.75;1.80;;;;;;;16.98;50.17;96247.81;5013833;28;20261;-78
2022/07/06 00:25:03;;;;;;;6.18;2.10;;;;;;;16.96;50.13;96255.84;5016042;28;20172;-78
2022/07/06 00:27:28;;;;;;;4.68;1.65;;;;;;;16.95;50.24;96253.38;5010892;28;20212;-78
2022/07/06 00:29:53;;;;;;;2.28;1.75;;;;;;;16.93;50.34;96255.34;5001180;28;20637;-78
2022/07/06 00:32:19;;;;;;;5.00;1.70;;;;;;;16.98;49.68;96259.13;5006166;28;20198;-78
2022/07/06 00:34:44;;;;;;;1.85;1.67;;;;;;;16.94;49.49;96257.81;4997185;28;20207;-79
2022/07/06 00:37:09;;;;;;;2.45;1.80;;;;;;;16.92;49.83;96261.59;5015302;28;20732;-79
2022/07/06 00:39:35;;;;;;;3.70;1.77;;;;;;;16.93;49.59;96264.03;4999417;28;20194;-78
2022/07/06 00:42:00;;;;;;;4.38;1.75;;;;;;;16.91;49.75;96268.66;5016861;28;20325;-78
2022/07/06 00:44:26;;;;;;;3.03;1.80;;;;;;;16.85;50.08;96266.69;5011197;28;20251;-79
2022/07/06 00:46:51;;;;;;;5.65;1.80;;;;;;;16.83;50.09;96250.31;5013975;28;20187;-79
2022/07/06 00:52:01;;;;;;;3.90;1.50;;;;;;;16.74;50.42;96253.94;5013757;28;20741;-79
2022/07/06 00:54:28;;;;;;;3.08;1.60;;;;;;;16.71;50.87;96251.66;5013408;28;20183;-78
2022/07/06 00:56:54;;;;;;;1.80;1.70;;;;;;;16.65;50.87;96253.13;5014419;28;20504;-79
2022/07/06 00:59:19;;;;;;;3.50;1.90;;;;;;;16.65;50.70;96253.13;5011605;28;20274;-79
2022/07/06 01:01:45;;;;;;;4.38;1.73;;;;;;;16.58;51.06;96251.31;5026095;28;20203;-79
2022/07/06 01:04:13;;;;;;;1.75;1.65;;;;;;;16.47;51.61;96249.06;5014203;28;20273;-79
2022/07/06 01:06:38;;;;;;;2.38;1.60;;;;;;;16.50;51.41;96251.34;4998311;28;20191;-79
2022/07/06 01:09:05;;;;;;;5.32;2.00;;;;;;;16.49;51.69;96261.00;5014487;28;20529;-79
2022/07/06 01:11:30;;;;;;;3.55;2.15;;;;;;;16.45;51.80;96253.66;4997666;28;20238;-79
2022/07/06 01:13:56;;;;;;;3.22;1.90;;;;;;;16.29;53.48;96260.56;5013971;28;20191;-79
2022/07/06 01:16:21;;;;;;;2.40;2.20;;;;;;;16.36;53.74;96247.63;4997871;28;20211;-79
2022/07/06 01:18:47;;;;;;;3.47;1.92;;;;;;;16.28;54.18;96247.63;4998442;28;20213;-79
2022/07/06 01:21:14;;;;;;;4.03;2.10;;;;;;;16.18;54.58;96247.00;5015091;28;20568;-78
2022/07/06 01:23:43;;;;;;;1.75;1.65;;;;;;;16.26;54.62;96247.78;5013873;28;20266;-79
2022/07/06 01:26:14;;;;;;;4.50;2.40;;;;;;;16.17;55.07;96240.09;4994289;28;20191;-79
2022/07/06 01:28:40;;;;;;;4.32;1.98;;;;;;;16.07;55.46;96237.63;4978234;28;20199;-79
2022/07/06 01:31:14;;;;;;;4.28;2.35;;;;;;;15.97;56.10;96239.59;5003117;28;20636;-79
2022/07/06 01:33:39;;;;;;;5.90;1.90;;;;;;;15.93;56.12;96236.50;5013847;28;20250;-79
2022/07/06 01:36:04;;;;;;;4.38;2.40;;;;;;;15.94;56.59;96238.16;4996993;28;20211;-79
2022/07/06 01:38:30;;;;;;;2.45;2.15;;;;;;;15.89;56.70;96232.56;4997276;28;20194;-79
2022/07/06 01:40:55;;;;;;;3.65;2.35;;;;;;;15.73;57.52;96229.97;5013575;28;20210;-79
2022/07/06 01:43:20;;;;;;;3.13;2.10;;;;;;;15.74;57.74;96231.59;4997488;28;20195;-79
2022/07/06 01:45:45;;;;;;;3.03;2.15;;;;;;;15.74;57.65;96236.84;5013321;28;20595;-79
2022/07/06 01:48:11;;;;;;;3.30;2.42;;;;;;;15.68;57.84;96235.69;5013630;28;20176;-79
2022/07/06 01:50:36;;;;;;;7.53;2.55;;;;;;;15.65;58.13;96237.81;4997482;28;20203;-79
2022/07/06 01:53:01;;;;;;;6.15;2.33;;;;;;;15.66;58.24;96228.97;4997837;28;20210;-80
2022/07/06 01:55:27;;;;;;;2.85;2.10;;;;;;;15.66;58.37;96237.63;4996520;28;20215;-79
2022/07/06 01:57:52;;;;;;;2.60;2.30;;;;;;;15.57;58.84;96235.97;5015236;28;20175;-79
2022/07/06 02:00:17;;;;;;;3.78;2.50;;;;;;;15.56;59.00;96237.75;4996955;28;20780;-80
2022/07/06 02:02:43;;;;;;;3.67;2.40;;;;;;;15.55;59.06;96241.38;5014222;28;20171;-79
2022/07/06 02:05:08;;;;;;;5.50;2.72;;;;;;;15.58;58.99;96237.59;5013118;28;20214;-79
2022/07/06 02:07:33;;;;;;;4.35;2.70;;;;;;;15.53;59.53;96239.88;4996700;28;20188;-79
2022/07/06 02:09:59;;;;;;;4.00;2.95;;;;;;;15.49;59.94;96246.41;5013322;28;20559;-79
2022/07/06 02:12:24;;;;;;;5.63;3.00;;;;;;;15.41;60.30;96241.16;5013286;28;20181;-79
2022/07/06 02:14:49;;;;;;;3.42;3.03;;;;;;;15.47;60.24;96238.72;4996441;28;20879;-79
2022/07/06 02:17:14;;;;;;;3.25;3.00;;;;;;;15.46;60.25;96231.88;5012886;28;20183;-79
2022/07/06 02:19:40;;;;;;;6.32;2.95;;;;;;;15.44;60.47;96239.03;5013152;28;20178;-80
2022/07/06 02:22:05;;;;;;;3.35;2.78;;;;;;;15.46;60.39;96234.47;5012894;28;20211;-79
2022/07/06 02:24:30;;;;;;;3.65;2.80;;;;;;;15.46;60.37;96234.47;5012567;28;20234;-79
2022/07/06 02:26:56;;;;;;;5.20;3.30;;;;;;;15.41;60.67;96234.13;4997084;28;20899;-79
2022/07/06 02:29:21;;;;;;;3.75;3.35;;;;;;;15.40;61.06;96237.72;5013703;28;20186;-79
2022/07/06 02:31:46;;;;;;;4.25;3.17;;;;;;;15.19;61.99;96235.53;5014180;28;20281;-80
2022/07/06 02:34:12;;;;;;;5.68;3.15;;;;;;;15.26;61.91;96233.94;4996177;28;20210;-79
2022/07/06 02:36:37;;;;;;;3.80;3.40;;;;;;;15.21;62.69;96244.06;4993545;28;20223;-78
2022/07/06 02:39:02;;;;;;;3.90;3.20;;;;;;;15.32;61.77;96240.31;4992439;28;20640;-79
2022/07/06 02:41:28;;;;;;;5.65;3.33;;;;;;;15.27;62.24;96237.34;5006290;28;20736;-79
2022/07/06 02:43:53;;;;;;;4.00;3.28;;;;;;;15.20;62.76;96239.00;4996122;28;20214;-79
2022/07/06 02:46:18;;;;;;;8.32;3.45;;;;;;;15.23;62.81;96243.91;5012821;28;20674;-79
2022/07/06 02:48:44;;;;;;;4.35;3.60;;;;;;;15.13;63.25;96243.22;4996812;28;20183;-79
2022/07/06 02:51:09;;;;;;;6.43;3.42;;;;;;;15.12;63.67;96246.81;5012624;28;20195;-79
2022/07/06 02:53:34;;;;;;;5.40;3.80;;;;;;;15.18;63.10;96238.31;5012279;28;20191;-78
2022/07/06 02:56:00;;;;;;;7.63;3.60;;;;;;;15.07;63.97;96236.81;5012207;28;20210;-79
2022/07/06 02:58:25;;;;;;;5.80;3.40;;;;;;;15.04;64.09;96236.31;4996353;28;20187;-79
2022/07/06 03:00:50;;;;;;;6.85;3.72;;;;;;;14.95;64.67;96238.09;4996252;28;20202;-79
2022/07/06 03:03:15;;;;;;;12.75;4.30;;;;;;;14.93;64.99;96243.47;5012582;28;20179;-79
2022/07/06 03:05:41;;;;;;;5.60;3.80;;;;;;;14.92;65.38;96248.84;5011956;28;20578;-79
2022/07/06 03:08:06;;;;;;;6.00;4.35;;;;;;;14.97;65.25;96252.63;5012626;28;20194;-79
2022/07/06 03:10:31;;;;;;;5.55;3.92;;;;;;;14.89;65.62;96249.16;5012987;28;20210;-79
2022/07/06 03:12:57;;;;;;;5.90;4.20;;;;;;;14.88;65.64;96256.19;5012600;28;20191;-79
2022/07/06 03:15:22;;;;;;;6.38;3.95;;;;;;;14.92;65.66;96257.50;5011407;28;20245;-79
2022/07/06 03:17:47;;;;;;;6.70;4.22;;;;;;;14.79;66.54;96259.75;5011693;28;20278;-79
2022/07/06 03:20:13;;;;;;;7.38;4.85;;;;;;;14.85;66.31;96261.75;5012948;28;20210;-79
2022/07/06 03:22:39;;;;;;;6.25;4.70;;;;;;;14.85;66.59;96269.59;5013810;28;20198;-79
2022/07/06 03:25:04;;;;;;;6.05;4.25;;;;;;;14.80;67.20;96268.41;5012258;28;20187;-79
2022/07/06 03:27:29;;;;;;;6.18;4.53;;;;;;;14.83;66.62;96260.25;5007306;28;20231;-79
2022/07/06 03:29:55;;;;;;;5.15;4.55;;;;;;;14.80;67.36;96266.63;5012516;28;20235;-79
2022/07/06 03:32:20;;;;;;;6.55;5.00;;;;;;;14.79;67.27;96267.59;5022726;28;20184;-80
2022/07/06 03:34:45;;;;;;;8.10;5.15;;;;;;;14.80;67.30;96260.56;5035258;28;20199;-79
2022/07/06 03:37:11;;;;;;;9.60;4.90;;;;;;;14.76;67.40;96267.91;5028901;28;20198;-79
2022/07/06 03:39:36;;;;;;;5.88;4.53;;;;;;;14.84;67.01;96267.97;4997534;28;20176;-79
2022/07/06 03:42:01;;;;;;;9.55;4.50;;;;;;;14.88;66.91;96269.28;4997509;28;21380;-80
2022/07/06 03:44:26;;;;;;;6.28;4.88;;;;;;;14.86;67.15;96265.19;5012681;28;20555;-79
2022/07/06 03:46:55;;;;;;;5.95;5.35;;;;;;;14.88;67.02;96266.66;5010284;28;20192;-78
2022/07/06 03:49:20;;;;;;;7.78;5.15;;;;;;;14.90;67.38;96263.88;4995616;28;20199;-79
2022/07/06 03:51:45;;;;;;;7.18;4.57;;;;;;;14.88;67.65;96266.66;5014513;28;20203;-79
2022/07/06 03:54:11;;;;;;;6.70;4.78;;;;;;;14.93;67.56;96264.41;5014103;28;20223;-79
2022/07/06 03:56:38;;;;;;;6.05;5.05;;;;;;;15.09;66.86;96265.44;5011457;28;20337;-79
2022/07/06 03:59:04;;;;;;;6.70;4.88;;;;;;;15.98;63.97;96265.63;4994939;28;20583;-80
2022/07/06 04:01:29;;;;;;;8.98;4.70;;;;;;;17.05;59.91;96261.88;5009463;28;20199;-78
2022/07/06 04:03:55;;;;;;;5.05;4.40;;;;;;;17.77;56.31;96265.13;5006281;28;20615;-80
2022/07/06 04:06:20;;;;;;;6.35;4.30;;;;;;;18.59;53.33;96277.59;5015373;28;20223;-79
2022/07/06 04:08:45;;;;;;;8.85;4.25;;;;;;;19.32;51.99;96273.34;5014786;28;20183;-78
2022/07/06 04:11:11;;;;;;;6.25;3.70;;;;;;;19.74;49.41;96275.28;4998311;28;20234;-78
2022/07/06 04:13:37;;;;;;;4.50;3.25;;;;;;;20.23;48.40;96269.22;5014417;28;20181;-80
2022/07/06 04:16:02;;;;;;;4.07;3.67;;;;;;;20.60;46.86;96281.34;5013549;28;20195;-79
2022/07/06 04:18:28;;;;;;;4.20;3.78;;;;;;;20.93;45.43;96277.06;5013039;28;20276;-78
2022/07/06 04:20:53;;;;;;;6.05;3.97;;;;;;;21.30;45.62;96275.09;5013469;28;21000;-77
2022/07/06 04:23:19;;;;;;;3.60;3.30;;;;;;;21.38;44.91;96287.28;5012227;28;20195;-79
2022/07/06 04:25:44;;;;;;;5.13;3.70;;;;;;;21.70;43.90;96286.59;5013333;28;20712;-78
2022/07/06 04:28:09;;;;;;;5.65;3.80;;;;;;;22.16;42.67;96296.47;4996996;28;20213;-79
2022/07/06 04:30:35;;;;;;;6.60;3.20;;;;;;;22.23;41.88;96302.59;5013704;28;20199;-78
2022/07/06 04:33:00;;;;;;;4.30;3.10;;;;;;;22.15;42.19;96296.69;5011463;28;20266;-79
2022/07/06 04:35:25;;;;;;;5.90;3.45;;;;;;;22.61;40.99;96296.69;5024715;28;20187;-82
2022/07/06 04:37:51;;;;;;;5.88;3.35;;;;;;;22.79;41.17;96304.84;5037310;28;20263;-80
2022/07/06 04:40:16;;;;;;;3.72;3.10;;;;;;;23.41;39.52;96300.88;5036895;28;20223;-80
2022/07/06 04:42:42;;;;;;;5.50;3.40;;;;;;;23.68;38.91;96300.78;5014126;28;20184;-80
2022/07/06 04:45:08;;;;;;;7.10;3.22;;;;;;;23.94;37.70;96299.81;4993815;28;20178;-80
2022/07/06 04:47:34;;;;;;;6.43;3.20;;;;;;;24.06;37.30;96300.78;4988598;28;20552;-79
2022/07/06 04:49:59;;;;;;;3.72;2.85;;;;;;;24.25;37.19;96309.63;5013201;28;20187;-80
2022/07/06 04:52:25;;;;;;;6.85;3.00;;;;;;;24.78;36.99;96314.56;4996495;28;20195;-80
2022/07/06 04:54:50;;;;;;;4.47;3.03;;;;;;;23.90;37.35;96310.03;5012280;28;20222;-79
2022/07/06 04:57:15;;;;;;;6.43;3.00;;;;;;;25.65;34.61;96313.47;4996678;28;20179;-79
2022/07/06 04:59:41;;;;;;;7.40;2.90;;;;;;;25.24;35.67;96313.31;4997656;28;20183;-80
2022/07/06 05:02:06;;;;;;;3.72;2.92;;;;;;;25.07;35.83;96313.91;5012078;28;20203;-78
2022/07/06 05:04:32;;;;;;;3.08;2.78;;;;;;;26.09;34.25;96308.81;5012384;28;20217;-79
2022/07/06 05:06:57;;;;;;;5.50;3.00;;;;;;;26.34;33.65;96315.84;5013570;28;20556;-78
2022/07/06 05:09:23;;;;;;;7.20;3.30;;;;;;;27.34;31.76;96303.28;4996957;28;20182;-79
2022/07/06 05:11:48;;;;;;;5.97;2.28;;;;;;;26.82;33.15;96316.50;5014574;28;20206;-78
2022/07/06 05:14:13;;;;;;;6.68;2.63;;;;;;;26.73;32.15;96320.56;5012834;28;20229;-79
2022/07/06 05:16:39;;;;;;;5.60;2.92;;;;;;;25.67;34.22;96316.69;5014268;28;20223;-81
2022/07/06 05:19:04;;;;;;;7.05;2.90;;;;;;;26.19;33.06;96321.56;5014167;28;20642;-81
2022/07/06 05:21:29;;;;;;;6.80;3.13;;;;;;;26.21;33.31;96320.31;5015578;28;20210;-81
2022/07/06 05:23:55;;;;;;;6.25;2.58;;;;;;;25.74;34.32;96323.81;5010997;28;20184;-78
2022/07/06 05:26:20;;;;;;;4.97;2.90;;;;;;;26.75;31.75;96320.31;5026963;28;20559;-77
2022/07/06 05:28:45;;;;;;;6.32;2.78;;;;;;;25.87;33.48;96328.97;5011741;28;20194;-78
2022/07/06 05:31:10;;;;;;;5.22;2.60;;;;;;;26.44;32.24;96324.09;5011778;28;20253;-78
2022/07/06 05:33:36;;;;;;;3.35;3.05;;;;;;;25.64;33.48;96325.13;5011925;28;20202;-78
2022/07/06 05:36:01;;;;;;;7.75;3.00;;;;;;;26.36;32.34;96324.41;5013666;28;20672;-77
2022/07/06 05:38:26;;;;;;;4.78;2.63;;;;;;;26.10;33.48;96321.09;5011576;28;20179;-77
2022/07/06 05:40:52;;;;;;;5.78;2.60;;;;;;;25.94;33.87;96325.19;5011537;28;20219;-77
2022/07/06 05:43:17;;;;;;;5.25;3.10;;;;;;;26.93;31.65;96325.53;5013449;28;20233;-77
2022/07/06 05:45:43;;;;;;;2.80;2.50;;;;;;;26.89;31.03;96328.91;5011351;28;20662;-77
2022/07/06 05:50:52;;;;;;;7.50;2.50;;;;;;;27.15;31.26;96330.34;5012090;28;20208;-77
2022/07/06 05:53:17;;;;;;;4.90;2.72;;;;;;;26.02;33.08;96323.25;5010807;28;20545;-77
2022/07/06 05:55:43;;;;;;;6.22;3.10;;;;;;;24.35;35.46;96327.75;5011627;28;20206;-77
2022/07/06 05:58:08;;;;;;;7.05;2.70;;;;;;;23.39;37.42;96326.75;5010821;28;20190;-78
2022/07/06 06:00:33;;;;;;;4.15;2.78;;;;;;;24.07;36.76;96331.59;5010967;28;20199;-77
2022/07/06 06:02:59;;;;;;;5.63;3.40;;;;;;;22.73;39.27;96337.44;5011224;28;20344;-77
2022/07/06 06:05:25;;;;;;;6.65;3.55;;;;;;;23.55;37.43;96329.97;5010296;28;20361;-79
2022/07/06 06:07:50;;;;;;;3.83;2.88;;;;;;;23.48;38.24;96326.50;4994139;28;20179;-79
2022/07/06 06:10:17;;;;;;;4.85;2.63;;;;;;;24.98;35.37;96328.47;4994576;28;20198;-77
2022/07/06 06:12:43;;;;;;;3.90;2.80;;;;;;;25.37;35.00;96326.47;4994837;28;20183;-77
2022/07/06 06:15:09;;;;;;;6.20;3.05;;;;;;;26.09;33.08;96330.13;5011593;28;20210;-76
2022/07/06 06:17:35;;;;;;;3.50;2.88;;;;;;;27.74;30.76;96334.56;5010820;28;20257;-78
2022/07/06 06:20:00;;;;;;;4.95;2.85;;;;;;;26.36;32.56;96343.03;5010147;28;20253;-78
2022/07/06 06:22:26;;;;;;;4.22;2.53;;;;;;;25.89;32.97;96337.56;5011278;28;20175;-77
2022/07/06 06:24:51;;;;;;;4.35;2.70;;;;;;;25.61;33.09;96335.41;5011478;28;20205;-78
2022/07/06 06:27:17;;;;;;;5.45;2.90;;;;;;;23.88;36.99;96341.28;5011268;28;20682;-77
2022/07/06 06:29:44;;;;;;;6.38;2.70;;;;;;;23.38;38.15;96340.22;5011459;28;20757;-77
2022/07/06 06:32:10;;;;;;;2.70;2.50;;;;;;;22.64;40.51;96340.50;5011059;28;20253;-77
2022/07/06 06:34:35;;;;;;;5.07;2.92;;;;;;;21.97;40.52;96347.47;5009223;28;20175;-77
2022/07/06 06:37:01;;;;;;;5.38;2.80;;;;;;;21.46;42.52;96346.06;5010056;28;20221;-77
2022/07/06 06:39:26;;;;;;;6.93;3.00;;;;;;;20.82;43.84;96345.44;5011649;28;20541;-78
2022/07/06 06:41:52;;;;;;;5.47;3.00;;;;;;;20.68;45.14;96346.38;5010955;28;20202;-77
2022/07/06 06:44:17;;;;;;;6.75;3.15;;;;;;;20.37;45.68;96348.28;5010769;28;20271;-77
2022/07/06 06:46:43;;;;;;;5.78;3.25;;;;;;;20.69;45.44;96342.72;5011328;28;20195;-77
2022/07/06 06:49:09;;;;;;;3.70;3.15;;;;;;;23.09;39.26;96347.63;4994090;28;20387;-77
2022/07/06 06:51:34;;;;;;;4.43;3.30;;;;;;;21.91;41.62;96346.47;4993076;28;20199;-77
2022/07/06 06:54:00;;;;;;;6.47;3.42;;;;;;;22.57;39.73;96346.59;5009061;28;20182;-78
2022/07/06 06:56:25;;;;;;;6.22;2.85;;;;;;;22.50;39.78;96345.78;4993904;28;20521;-77
2022/07/06 06:58:50;;;;;;;3.97;3.00;;;;;;;24.36;35.82;96345.31;5012065;28;20738;-77
2022/07/06 07:01:16;;;;;;;3.42;2.88;;;;;;;25.37;33.49;96340.59;5007635;28;20209;-77
2022/07/06 07:03:41;;;;;;;3.45;2.85;;;;;;;26.08;32.44;96341.81;5008075;28;20655;-77
2022/07/06 07:06:06;;;;;;;6.03;2.60;;;;;;;25.60;34.33;96347.06;5008269;28;20211;-77
2022/07/06 07:08:32;;;;;;;5.70;3.35;;;;;;;26.16;33.32;96344.16;5009490;28;20186;-77
2022/07/06 07:10:57;;;;;;;4.97;2.97;;;;;;;26.17;32.51;96342.28;5009703;28;20226;-77
2022/07/06 07:13:22;;;;;;;4.68;2.60;;;;;;;25.72;33.35;96339.22;5007747;28;20629;-77
2022/07/06 07:15:48;;;;;;;4.45;3.15;;;;;;;25.71;33.56;96338.41;5009928;28;20206;-77
2022/07/06 07:18:13;;;;;;;4.82;3.13;;;;;;;25.96;33.35;96343.59;5010404;28;20187;-77
2022/07/06 07:20:38;;;;;;;4.70;2.83;;;;;;;25.91;33.24;96340.81;5009819;28;20202;-78
2022/07/06 07:23:04;;;;;;;3.83;3.17;;;;;;;26.53;33.02;96344.84;4995856;28;20190;-78
2022/07/06 07:25:29;;;;;;;4.22;2.83;;;;;;;26.67;32.47;96340.13;5011018;28;20547;-79
2022/07/06 07:27:54;;;;;;;6.28;2.80;;;;;;;26.85;32.07;96339.22;4997890;28;20233;-78
2022/07/06 07:30:20;;;;;;;3.78;3.05;;;;;;;27.61;30.00;96334.78;5014237;28;20333;-78
2022/07/06 07:32:46;;;;;;;5.15;2.75;;;;;;;27.32;30.67;96340.06;5014363;28;20258;-79
2022/07/06 07:35:11;;;;;;;5.38;2.90;;;;;;;26.72;31.86;96342.91;5014201;28;20213;-79
2022/07/06 07:37:37;;;;;;;4.97;3.00;;;;;;;25.13;35.05;96333.47;5010189;28;20192;-79
2022/07/06 07:40:04;;;;;;;6.30;3.60;;;;;;;26.17;32.11;96334.31;4996229;28;20221;-79
2022/07/06 07:42:29;;;;;;;8.48;3.22;;;;;;;26.64;31.87;96335.25;5012889;28;20195;-78
2022/07/06 07:44:54;;;;;;;6.90;3.00;;;;;;;25.07;34.25;96326.38;4995643;28;20365;-78
2022/07/06 07:47:20;;;;;;;7.60;3.15;;;;;;;25.28;34.16;96336.59;4994004;28;20652;-78
2022/07/06 07:49:45;;;;;;;4.05;3.17;;;;;;;24.80;34.48;96337.22;5013036;28;20175;-78
2022/07/06 07:52:10;;;;;;;4.55;3.17;;;;;;;24.38;36.38;96335.28;5013005;28;20230;-78
2022/07/06 07:54:36;;;;;;;6.05;3.22;;;;;;;24.25;36.41;96329.03;5012346;28;20172;-78
2022/07/06 07:57:01;;;;;;;6.88;3.10;;;;;;;25.03;35.56;96333.97;4996048;28;20193;-79
2022/07/06 07:59:26;;;;;;;4.78;2.50;;;;;;;25.48;34.78;96333.72;5014017;28;20258;-79
2022/07/06 08:01:51;;;;;;;3.75;3.10;;;;;;;24.92;35.63;96337.31;5012553;28;20211;-79
2022/07/06 08:04:17;;;;;;;4.45;3.08;;;;;;;24.77;36.24;96340.31;4995809;28;20175;-79
2022/07/06 08:06:42;;;;;;;4.95;2.97;;;;;;;24.55;35.80;96341.69;5014673;28;20531;-79
2022/07/06 08:09:08;;;;;;;6.45;3.00;;;;;;;24.69;36.79;96337.91;5013893;28;20183;-78
2022/07/06 08:11:34;;;;;;;5.00;3.30;;;;;;;25.09;35.20;96341.09;5014602;28;20214;-78
2022/07/06 08:13:59;;;;;;;5.32;3.33;;;;;;;23.94;36.41;96334.28;5012838;28;20534;-78
2022/07/06 08:16:25;;;;;;;5.80;3.33;;;;;;;23.69;37.92;96336.88;4994170;28;20204;-78
2022/07/06 08:18:50;;;;;;;6.72;3.53;;;;;;;23.62;38.39;96331.59;5005820;28;20218;-78
2022/07/06 08:21:15;;;;;;;5.28;3.22;;;;;;;23.55;38.04;96330.78;4996184;28;20206;-78
2022/07/06 08:23:41;;;;;;;5.72;3.60;;;;;;;23.62;38.87;96333.44;5013101;28;20187;-78
2022/07/06 08:26:06;;;;;;;5.80;3.58;;;;;;;22.89;40.60;96331.75;5012099;28;20650;-77
2022/07/06 08:28:31;;;;;;;9.55;3.33;;;;;;;23.34;40.10;96331.88;5013471;28;20717;-78
2022/07/06 08:30:57;;;;;;;8.88;3.58;;;;;;;22.63;41.32;96337.03;5012283;28;20617;-77
2022/07/06 08:33:22;;;;;;;7.57;3.97;;;;;;;22.45;41.51;96340.28;5011856;28;20193;-79
2022/07/06 08:35:47;;;;;;;6.25;2.80;;;;;;;22.59;41.93;96328.66;5013131;28;20558;-77
2022/07/06 08:38:13;;;;;;;8.60;3.65;;;;;;;22.74;41.95;96336.41;5009793;28;20179;-77
2022/07/06 08:40:40;;;;;;;5.72;3.05;;;;;;;23.31;41.33;96326.97;5010412;28;20199;-77
2022/07/06 08:43:05;;;;;;;5.18;3.40;;;;;;;22.95;41.36;96337.25;5010343;28;20194;-77
2022/07/06 08:45:34;;;;;;;6.60;3.50;;;;;;;23.32;40.29;96330.44;4993845;28;20191;-78
2022/07/06 08:48:04;;;;;;;4.28;2.90;;;;;;;22.86;41.92;96332.16;5010799;28;20206;-78
2022/07/06 08:50:29;;;;;;;7.68;4.45;;;;;;;22.17;42.09;96335.13;5012001;28;20226;-78
2022/07/06 08:52:54;;;;;;;4.63;4.10;;;;;;;22.29;41.44;96340.69;5010270;28;20179;-77
2022/07/06 08:55:20;;;;;;;4.97;4.30;;;;;;;21.67;42.91;96336.41;4993225;28;20632;-77
2022/07/06 08:57:46;;;;;;;5.55;4.10;;;;;;;21.73;43.68;96346.19;5010572;28;20229;-78
2022/07/06 09:00:12;;;;;;;6.82;4.30;;;;;;;21.70;43.03;96341.28;5010173;28;20187;-77
2022/07/06 09:02:37;;;;;;;11.70;4.03;;;;;;;21.46;44.48;96335.50;5009854;28;20191;-77
2022/07/06 09:05:03;;;;;;;8.55;4.03;;;;;;;21.74;44.55;96342.53;5009477;28;20473;-78
2022/07/06 09:07:29;;;;;;;7.88;4.10;;;;;;;22.29;43.63;96343.31;5010490;28;20670;-78
2022/07/06 09:09:55;;;;;;;9.00;4.18;;;;;;;22.37;42.47;96353.72;5011025;28;20190;-77
2022/07/06 09:12:21;;;;;;;7.03;4.05;;;;;;;22.42;43.36;96353.91;4991995;28;20176;-77
2022/07/06 09:14:46;;;;;;;8.63;4.18;;;;;;;22.18;43.57;96360.59;5009800;28;20179;-77
2022/07/06 09:17:12;;;;;;;6.40;4.75;;;;;;;21.99;43.04;96354.19;5010462;28;20186;-77
2022/07/06 09:19:37;;;;;;;7.72;4.47;;;;;;;22.59;43.46;96359.63;5010293;28;20279;-78
2022/07/06 09:22:03;;;;;;;7.78;4.70;;;;;;;22.04;42.95;96350.97;5009735;28;20207;-78
2022/07/06 09:24:28;;;;;;;8.90;4.50;;;;;;;22.24;42.88;96356.31;5008797;28;20188;-77
2022/07/06 09:26:58;;;;;;;7.28;3.85;;;;;;;22.59;43.04;96364.91;5010946;28;20610;-78
2022/07/06 09:29:30;;;;;;;5.45;3.97;;;;;;;22.50;43.55;96361.66;5005826;28;20181;-78
2022/07/06 09:32:00;;;;;;;6.95;4.53;;;;;;;22.69;42.73;96364.50;5026461;28;20682;-78
2022/07/06 09:34:41;;;;;;;7.55;4.57;;;;;;;22.92;41.16;96364.16;5009550;28;20573;-78
2022/07/06 09:37:06;;;;;;;6.38;4.30;;;;;;;22.62;41.78;96369.81;5027113;28;20226;-77
2022/07/06 09:39:32;;;;;;;7.50;4.72;;;;;;;22.03;43.42;96359.91;4994580;28;20194;-78
2022/07/06 09:41:59;;;;;;;11.80;6.65;;;;;;;21.55;45.44;96357.28;4994228;28;20209;-77
2022/07/06 09:44:29;;;;;;;26.45;12.38;;;;;;;21.82;44.39;96367.97;5010529;28;20643;-77
2022/07/06 09:46:56;;;;;;;8.68;4.80;;;;;;;22.29;43.80;96361.84;5009961;28;20179;-78
2022/07/06 09:49:22;;;;;;;5.07;3.72;;;;;;;22.54;43.60;96367.38;5010274;28;20183;-78
2022/07/06 09:51:49;;;;;;;8.30;3.95;;;;;;;22.31;44.19;96373.03;4990820;28;20286;-78
2022/07/06 09:54:15;;;;;;;8.48;4.60;;;;;;;22.58;43.53;96374.69;5004118;28;20202;-78
2022/07/06 09:56:43;;;;;;;5.07;4.20;;;;;;;22.89;42.52;96379.44;5009284;28;20579;-78
2022/07/06 09:59:12;;;;;;;7.32;3.88;;;;;;;23.28;41.04;96374.28;5010557;28;20274;-77
2022/07/06 10:01:38;;;;;;;7.15;4.95;;;;;;;22.83;42.65;96377.56;5010217;28;20261;-78
2022/07/06 10:04:08;;;;;;;6.72;4.18;;;;;;;23.12;41.38;96375.53;4993814;28;20191;-78
2022/07/06 10:06:33;;;;;;;6.63;4.05;;;;;;;22.16;43.85;96383.78;4994227;28;20270;-77
2022/07/06 10:08:59;;;;;;;5.18;3.97;;;;;;;23.20;41.90;96377.97;4996722;28;20266;-78
2022/07/06 10:11:25;;;;;;;9.07;4.53;;;;;;;22.82;42.93;96375.94;4999340;28;20277;-78
2022/07/06 10:13:54;;;;;;;6.97;4.60;;;;;;;22.60;41.37;96380.59;5007473;28;20179;-77
2022/07/06 10:16:22;;;;;;;7.45;3.97;;;;;;;22.83;42.48;96384.69;5006981;28;20195;-77
2022/07/06 10:18:49;;;;;;;8.07;4.38;;;;;;;22.65;41.15;96377.34;4990963;28;20183;-78
2022/07/06 10:21:15;;;;;;;6.43;5.07;;;;;;;22.17;42.30;96380.09;4990757;28;20694;-78
2022/07/06 10:23:40;;;;;;;10.15;4.97;;;;;;;20.12;48.11;96373.41;5006020;28;20566;-78
2022/07/06 10:26:06;;;;;;;6.78;4.50;;;;;;;20.96;46.43;96381.50;5006665;28;20171;-77
2022/07/06 10:28:32;;;;;;;7.93;4.80;;;;;;;20.26;48.56;96366.44;5002704;28;20246;-77
2022/07/06 10:30:57;;;;;;;6.50;4.80;;;;;;;20.68;48.42;96373.56;5004043;28;20203;-77
2022/07/06 10:33:23;;;;;;;7.75;4.35;;;;;;;21.67;45.66;96368.94;4998775;28;20705;-77
2022/07/06 10:35:49;;;;;;;5.47;4.40;;;;;;;21.53;44.16;96367.25;5006281;28;20269;-77
2022/07/06 10:38:14;;;;;;;6.53;4.53;;;;;;;20.64;46.44;96378.41;4990585;28;20202;-78
2022/07/06 10:43:36;;;;;;;7.43;4.45;;;;;;;21.78;44.79;96375.50;5005702;28;20249;-78
2022/07/06 10:46:08;;;;;;;7.82;4.50;;;;;;;22.07;42.44;96369.09;5012153;28;20182;-78
2022/07/06 10:48:44;;;;;;;9.15;4.32;;;;;;;22.70;42.55;96376.72;5012445;28;20671;-78
2022/07/06 10:51:25;;;;;;;5.38;4.88;;;;;;;22.54;40.93;96370.03;4996408;28;20315;-78
2022/07/06 10:53:59;;;;;;;5.85;4.00;;;;;;;22.30;40.79;96374.06;4995964;28;20245;-78
2022/07/06 10:56:39;;;;;;;6.22;4.35;;;;;;;22.17;42.47;96382.75;5012556;28;20206;-78
2022/07/06 10:59:13;;;;;;;8.52;4.72;;;;;;;22.05;41.95;96365.81;4995651;28;20178;-78
2022/07/06 11:01:38;;;;;;;9.88;4.60;;;;;;;22.04;42.42;96369.47;5011269;28;20211;-78
2022/07/06 11:04:05;;;;;;;6.63;3.85;;;;;;;21.94;43.27;96379.63;4994270;28;20215;-78
2022/07/06 11:06:37;;;;;;;9.10;4.63;;;;;;;21.78;42.97;96365.72;5011089;28;20245;-78
2022/07/06 11:09:07;;;;;;;10.70;4.20;;;;;;;21.91;42.25;96375.56;5011555;28;20682;-78
2022/07/06 11:11:32;;;;;;;11.15;4.57;;;;;;;22.03;42.19;96373.94;5012834;28;20512;-78
2022/07/06 11:14:07;;;;;;;7.53;4.30;;;;;;;22.17;42.26;96374.81;5014327;28;20182;-78
2022/07/06 11:16:38;;;;;;;6.30;4.10;;;;;;;22.42;41.08;96371.63;4997390;28;20921;-78
2022/07/06 11:19:11;;;;;;;4.85;4.10;;;;;;;22.80;42.04;96370.03;5013199;28;20187;-78
2022/07/06 11:21:37;;;;;;;6.38;3.78;;;;;;;23.17;40.07;96375.72;4996619;28;20195;-78
2022/07/06 11:24:11;;;;;;;5.22;3.78;;;;;;;23.22;40.01;96370.63;5012195;28;20184;-78
2022/07/06 11:26:37;;;;;;;5.13;3.92;;;;;;;22.57;40.94;96370.41;4995864;28;20554;-76
2022/07/06 11:29:06;;;;;;;6.35;4.00;;;;;;;22.41;40.33;96370.81;4992447;28;20176;-78
2022/07/06 11:31:37;;;;;;;3.83;3.42;;;;;;;22.63;41.36;96366.16;4995349;28;20199;-77
2022/07/06 11:34:04;;;;;;;6.07;3.42;;;;;;;23.01;40.33;96366.38;5011305;28;20256;-78
2022/07/06 11:36:29;;;;;;;8.00;3.80;;;;;;;22.78;39.42;96365.94;4995926;28;20281;-78